sensor_id;sensor_type;location;lat;lon;timestamp;pressure;altitude;pressure_sealevel;temperature;humidity
66703;BME280;60933;46.398;-63.798;2023-12-14T00:00:07;101898.22;;;-2.80;76.71
66703;BME280;60933;46.398;-63.798;2023-12-14T00:02:36;101891.50;;;-2.79;79.19
66703;BME280;60933;46.398;-63.798;2023-12-14T00:05:04;101905.06;;;-2.95;81.57
66703;BME280;60933;46.398;-63.798;2023-12-14T00:07:33;101910.28;;;-3.09;83.10
66703;BME280;60933;46.398;-63.798;2023-12-14T00:10:01;101905.56;;;-3.19;86.84
66703;BME280;60933;46.398;-63.798;2023-12-14T00:12:31;101907.78;;;-3.25;87.12
66703;BME280;60933;46.398;-63.798;2023-12-14T00:14:59;101904.84;;;-3.33;87.46
66703;BME280;60933;46.398;-63.798;2023-12-14T00:17:27;101908.41;;;-3.29;88.99
66703;BME280;60933;46.398;-63.798;2023-12-14T00:19:56;101908.41;;;-3.29;88.54
66703;BME280;60933;46.398;-63.798;2023-12-14T00:22:24;101918.38;;;-3.32;87.97
66703;BME280;60933;46.398;-63.798;2023-12-14T00:24:53;101894.69;;;-3.35;85.75
66703;BME280;60933;46.398;-63.798;2023-12-14T00:27:21;101931.06;;;-3.31;83.36
66703;BME280;60933;46.398;-63.798;2023-12-14T00:29:52;101898.00;;;-3.36;83.01
66703;BME280;60933;46.398;-63.798;2023-12-14T00:32:20;101921.69;;;-3.34;82.40
66703;BME280;60933;46.398;-63.798;2023-12-14T00:34:48;101950.09;;;-3.38;82.18
66703;BME280;60933;46.398;-63.798;2023-12-14T00:37:16;101930.13;;;-3.50;82.16
66703;BME280;60933;46.398;-63.798;2023-12-14T00:39:45;101941.88;;;-3.50;82.50
66703;BME280;60933;46.398;-63.798;2023-12-14T00:42:13;101938.25;;;-3.55;84.56
66703;BME280;60933;46.398;-63.798;2023-12-14T00:44:41;101957.13;;;-3.80;88.71
66703;BME280;60933;46.398;-63.798;2023-12-14T00:47:09;101962.50;;;-4.05;91.06
66703;BME280;60933;46.398;-63.798;2023-12-14T00:49:38;101967.88;;;-4.31;93.32
66703;BME280;60933;46.398;-63.798;2023-12-14T00:52:06;101970.03;;;-4.52;94.35
66703;BME280;60933;46.398;-63.798;2023-12-14T00:54:34;101989.25;;;-4.69;95.29
66703;BME280;60933;46.398;-63.798;2023-12-14T00:57:03;101971.94;;;-4.78;94.48
66703;BME280;60933;46.398;-63.798;2023-12-14T00:59:31;101967.50;;;-4.82;91.46
66703;BME280;60933;46.398;-63.798;2023-12-14T01:02:00;101953.09;;;-4.84;90.33
66703;BME280;60933;46.398;-63.798;2023-12-14T01:04:28;101953.16;;;-4.83;86.96
66703;BME280;60933;46.398;-63.798;2023-12-14T01:06:57;101961.59;;;-4.82;87.40
66703;BME280;60933;46.398;-63.798;2023-12-14T01:09:25;101960.72;;;-4.83;84.82
66703;BME280;60933;46.398;-63.798;2023-12-14T01:11:54;101970.88;;;-4.81;84.57
66703;BME280;60933;46.398;-63.798;2023-12-14T01:14:22;101960.03;;;-4.80;81.67
66703;BME280;60933;46.398;-63.798;2023-12-14T01:16:51;101955.06;;;-4.79;79.49
66703;BME280;60933;46.398;-63.798;2023-12-14T01:19:19;101965.41;;;-4.74;77.85
66703;BME280;60933;46.398;-63.798;2023-12-14T01:21:48;101957.00;;;-4.74;76.35
66703;BME280;60933;46.398;-63.798;2023-12-14T01:24:17;101955.72;;;-4.68;75.24
66703;BME280;60933;46.398;-63.798;2023-12-14T01:26:45;101952.38;;;-4.67;74.89
66703;BME280;60933;46.398;-63.798;2023-12-14T01:29:15;101959.16;;;-4.66;75.17
66703;BME280;60933;46.398;-63.798;2023-12-14T01:31:43;101954.91;;;-4.67;74.24
66703;BME280;60933;46.398;-63.798;2023-12-14T01:34:11;101949.88;;;-4.67;74.89
66703;BME280;60933;46.398;-63.798;2023-12-14T01:36:40;101953.34;;;-4.65;73.84
66703;BME280;60933;46.398;-63.798;2023-12-14T01:39:08;101954.91;;;-4.67;71.09
66703;BME280;60933;46.398;-63.798;2023-12-14T01:41:37;101959.16;;;-4.66;70.19
66703;BME280;60933;46.398;-63.798;2023-12-14T01:44:05;101953.59;;;-4.75;68.28
66703;BME280;60933;46.398;-63.798;2023-12-14T01:46:33;101967.16;;;-4.73;67.45
66703;BME280;60933;46.398;-63.798;2023-12-14T01:49:02;101972.03;;;-4.76;66.82
66703;BME280;60933;46.398;-63.798;2023-12-14T01:51:30;101962.53;;;-4.80;62.97
66703;BME280;60933;46.398;-63.798;2023-12-14T01:53:58;101959.06;;;-4.82;60.90
66703;BME280;60933;46.398;-63.798;2023-12-14T01:56:26;101971.41;;;-4.87;58.29
66703;BME280;60933;46.398;-63.798;2023-12-14T01:58:55;101978.50;;;-4.95;56.91
66703;BME280;60933;46.398;-63.798;2023-12-14T02:01:44;101966.34;;;-5.02;55.86
66703;BME280;60933;46.398;-63.798;2023-12-14T02:04:13;101983.78;;;-5.05;56.08
66703;BME280;60933;46.398;-63.798;2023-12-14T02:06:42;101977.41;;;-5.13;54.19
66703;BME280;60933;46.398;-63.798;2023-12-14T02:09:10;101996.34;;;-5.20;54.63
66703;BME280;60933;46.398;-63.798;2023-12-14T02:11:38;101982.84;;;-5.35;54.64
66703;BME280;60933;46.398;-63.798;2023-12-14T02:14:09;101994.53;;;-5.36;55.33
66703;BME280;60933;46.398;-63.798;2023-12-14T02:16:39;101993.75;;;-5.35;55.34
66703;BME280;60933;46.398;-63.798;2023-12-14T02:19:07;101993.47;;;-5.40;56.19
66703;BME280;60933;46.398;-63.798;2023-12-14T02:21:36;101990.53;;;-5.47;56.14
66703;BME280;60933;46.398;-63.798;2023-12-14T02:24:04;102023.91;;;-5.50;57.10
66703;BME280;60933;46.398;-63.798;2023-12-14T02:26:33;102006.09;;;-5.53;57.41
66703;BME280;60933;46.398;-63.798;2023-12-14T02:29:01;102011.63;;;-5.59;57.35
66703;BME280;60933;46.398;-63.798;2023-12-14T02:31:29;102013.59;;;-5.68;57.77
66703;BME280;60933;46.398;-63.798;2023-12-14T02:33:57;102007.38;;;-5.73;57.51
66703;BME280;60933;46.398;-63.798;2023-12-14T02:36:26;102033.22;;;-5.76;57.01
66703;BME280;60933;46.398;-63.798;2023-12-14T02:38:54;102015.16;;;-5.83;56.75
66703;BME280;60933;46.398;-63.798;2023-12-14T02:41:22;102072.72;;;-5.88;56.27
66703;BME280;60933;46.398;-63.798;2023-12-14T02:43:50;102027.22;;;-5.91;55.21
66703;BME280;60933;46.398;-63.798;2023-12-14T02:46:19;102046.97;;;-5.97;54.75
66703;BME280;60933;46.398;-63.798;2023-12-14T02:48:47;102081.81;;;-6.03;54.23
66703;BME280;60933;46.398;-63.798;2023-12-14T02:51:16;102027.06;;;-6.08;53.62
66703;BME280;60933;46.398;-63.798;2023-12-14T02:53:44;102032.47;;;-6.15;52.53
66703;BME280;60933;46.398;-63.798;2023-12-14T02:56:12;102043.13;;;-6.19;51.53
66703;BME280;60933;46.398;-63.798;2023-12-14T02:58:40;102043.78;;;-6.22;52.46
66703;BME280;60933;46.398;-63.798;2023-12-14T03:01:09;102050.06;;;-6.28;51.61
66703;BME280;60933;46.398;-63.798;2023-12-14T03:03:40;102043.75;;;-6.35;51.40
66703;BME280;60933;46.398;-63.798;2023-12-14T03:06:09;102031.69;;;-6.41;50.54
66703;BME280;60933;46.398;-63.798;2023-12-14T03:08:37;102048.19;;;-6.44;50.50
66703;BME280;60933;46.398;-63.798;2023-12-14T03:11:05;102045.47;;;-6.47;50.80
66703;BME280;60933;46.398;-63.798;2023-12-14T03:13:34;102036.88;;;-6.51;50.30
66703;BME280;60933;46.398;-63.798;2023-12-14T03:16:02;102044.31;;;-6.53;50.51
66703;BME280;60933;46.398;-63.798;2023-12-14T03:18:30;102036.47;;;-6.57;51.53
66703;BME280;60933;46.398;-63.798;2023-12-14T03:20:59;102029.16;;;-6.66;50.47
66703;BME280;60933;46.398;-63.798;2023-12-14T03:23:27;102047.66;;;-6.65;50.86
66703;BME280;60933;46.398;-63.798;2023-12-14T03:25:55;102029.66;;;-6.72;51.29
66703;BME280;60933;46.398;-63.798;2023-12-14T03:28:24;102032.94;;;-6.73;50.69
66703;BME280;60933;46.398;-63.798;2023-12-14T03:30:52;102045.41;;;-6.74;50.54
66703;BME280;60933;46.398;-63.798;2023-12-14T03:33:20;102030.88;;;-6.78;50.96
66703;BME280;60933;46.398;-63.798;2023-12-14T03:35:49;102039.41;;;-6.76;49.57
66703;BME280;60933;46.398;-63.798;2023-12-14T03:38:18;102045.94;;;-6.78;49.68
66703;BME280;60933;46.398;-63.798;2023-12-14T03:40:46;102057.75;;;-6.77;49.25
66703;BME280;60933;46.398;-63.798;2023-12-14T03:43:14;102052.50;;;-6.80;49.10
66703;BME280;60933;46.398;-63.798;2023-12-14T03:45:43;102044.88;;;-6.82;49.81
66703;BME280;60933;46.398;-63.798;2023-12-14T03:48:11;102043.59;;;-6.89;50.47
66703;BME280;60933;46.398;-63.798;2023-12-14T03:50:39;102050.25;;;-6.89;51.36
66703;BME280;60933;46.398;-63.798;2023-12-14T03:53:08;102058.25;;;-6.95;50.54
66703;BME280;60933;46.398;-63.798;2023-12-14T03:55:36;102050.63;;;-6.96;51.55
66703;BME280;60933;46.398;-63.798;2023-12-14T03:58:05;102034.47;;;-7.00;51.64
66703;BME280;60933;46.398;-63.798;2023-12-14T04:00:33;102048.66;;;-7.01;51.53
66703;BME280;60933;46.398;-63.798;2023-12-14T04:03:01;102032.31;;;-7.07;51.41
66703;BME280;60933;46.398;-63.798;2023-12-14T04:05:29;102035.38;;;-7.11;50.66
66703;BME280;60933;46.398;-63.798;2023-12-14T04:07:58;102048.69;;;-7.12;51.07
66703;BME280;60933;46.398;-63.798;2023-12-14T04:10:26;102043.66;;;-7.12;51.20
66703;BME280;60933;46.398;-63.798;2023-12-14T04:12:54;102031.00;;;-7.14;51.26
66703;BME280;60933;46.398;-63.798;2023-12-14T04:15:22;102027.53;;;-7.16;51.61
66703;BME280;60933;46.398;-63.798;2023-12-14T04:17:51;102009.22;;;-7.27;52.38
66703;BME280;60933;46.398;-63.798;2023-12-14T04:20:19;102019.50;;;-7.24;52.26
66703;BME280;60933;46.398;-63.798;2023-12-14T04:22:47;102015.03;;;-7.28;52.91
66703;BME280;60933;46.398;-63.798;2023-12-14T04:25:16;102014.25;;;-7.27;52.91
66703;BME280;60933;46.398;-63.798;2023-12-14T04:27:44;102008.81;;;-7.33;52.58
66703;BME280;60933;46.398;-63.798;2023-12-14T04:30:12;102024.09;;;-7.30;52.57
66703;BME280;60933;46.398;-63.798;2023-12-14T04:32:40;102023.34;;;-7.29;52.96
66703;BME280;60933;46.398;-63.798;2023-12-14T04:35:08;102011.41;;;-7.32;53.29
66703;BME280;60933;46.398;-63.798;2023-12-14T04:37:39;101998.63;;;-7.48;53.19
66703;BME280;60933;46.398;-63.798;2023-12-14T04:40:08;102010.34;;;-7.35;53.30
66703;BME280;60933;46.398;-63.798;2023-12-14T04:42:37;102017.88;;;-7.35;53.06
66703;BME280;60933;46.398;-63.798;2023-12-14T04:45:06;102010.25;;;-7.37;53.23
66703;BME280;60933;46.398;-63.798;2023-12-14T04:47:34;102014.63;;;-7.46;52.69
66703;BME280;60933;46.398;-63.798;2023-12-14T04:50:03;102010.16;;;-7.38;53.03
66703;BME280;60933;46.398;-63.798;2023-12-14T04:52:31;102002.31;;;-7.43;53.70
66703;BME280;60933;46.398;-63.798;2023-12-14T04:55:00;102006.34;;;-7.45;54.17
66703;BME280;60933;46.398;-63.798;2023-12-14T04:57:29;101997.84;;;-7.47;54.04
66703;BME280;60933;46.398;-63.798;2023-12-14T04:59:57;102014.53;;;-7.48;54.56
66703;BME280;60933;46.398;-63.798;2023-12-14T05:02:25;102002.75;;;-7.49;54.52
66703;BME280;60933;46.398;-63.798;2023-12-14T05:04:53;102014.44;;;-7.49;55.48
66703;BME280;60933;46.398;-63.798;2023-12-14T05:07:21;101996.97;;;-7.48;55.53
66703;BME280;60933;46.398;-63.798;2023-12-14T05:09:51;102006.59;;;-7.54;54.87
66703;BME280;60933;46.398;-63.798;2023-12-14T05:12:19;101995.56;;;-7.56;54.97
66703;BME280;60933;46.398;-63.798;2023-12-14T05:14:47;102002.91;;;-7.59;54.83
66703;BME280;60933;46.398;-63.798;2023-12-14T05:17:15;102011.28;;;-7.58;55.08
66703;BME280;60933;46.398;-63.798;2023-12-14T05:19:44;102006.94;;;-7.61;54.72
66703;BME280;60933;46.398;-63.798;2023-12-14T05:22:13;102021.75;;;-7.64;55.61
66703;BME280;60933;46.398;-63.798;2023-12-14T05:24:41;102014.13;;;-7.66;56.28
66703;BME280;60933;46.398;-63.798;2023-12-14T05:27:09;102028.19;;;-7.68;55.82
66703;BME280;60933;46.398;-63.798;2023-12-14T05:29:37;102026.56;;;-7.67;55.99
66703;BME280;60933;46.398;-63.798;2023-12-14T05:32:06;102024.59;;;-7.71;56.58
66703;BME280;60933;46.398;-63.798;2023-12-14T05:34:34;102034.63;;;-7.71;56.19
66703;BME280;60933;46.398;-63.798;2023-12-14T05:37:02;102035.28;;;-7.74;55.79
66703;BME280;60933;46.398;-63.798;2023-12-14T05:39:31;102027.09;;;-7.71;56.18
66703;BME280;60933;46.398;-63.798;2023-12-14T05:41:59;102020.13;;;-7.75;56.33
66703;BME280;60933;46.398;-63.798;2023-12-14T05:44:27;102032.88;;;-7.72;57.11
66703;BME280;60933;46.398;-63.798;2023-12-14T05:46:55;102008.03;;;-7.81;57.47
66703;BME280;60933;46.398;-63.798;2023-12-14T05:49:23;102031.13;;;-7.73;56.78
66703;BME280;60933;46.398;-63.798;2023-12-14T05:51:51;102022.66;;;-7.75;57.83
66703;BME280;60933;46.398;-63.798;2023-12-14T05:54:19;102031.34;;;-7.70;57.97
66703;BME280;60933;46.398;-63.798;2023-12-14T05:56:48;102034.63;;;-7.71;58.81
66703;BME280;60933;46.398;-63.798;2023-12-14T05:59:16;102016.66;;;-7.77;58.47
66703;BME280;60933;46.398;-63.798;2023-12-14T06:01:45;102024.16;;;-7.66;58.64
66703;BME280;60933;46.398;-63.798;2023-12-14T06:04:13;102060.25;;;-7.64;59.63
66703;BME280;60933;46.398;-63.798;2023-12-14T06:06:41;102024.47;;;-7.61;59.87
66703;BME280;60933;46.398;-63.798;2023-12-14T06:09:10;102025.25;;;-7.62;59.32
66703;BME280;60933;46.398;-63.798;2023-12-14T06:11:38;102032.53;;;-7.65;59.51
66703;BME280;60933;46.398;-63.798;2023-12-14T06:14:06;102033.28;;;-7.66;60.27
66703;BME280;60933;46.398;-63.798;2023-12-14T06:16:34;102031.34;;;-7.70;60.34
66703;BME280;60933;46.398;-63.798;2023-12-14T06:19:02;102040.28;;;-7.74;60.10
66703;BME280;60933;46.398;-63.798;2023-12-14T06:21:31;102050.41;;;-7.72;60.21
66703;BME280;60933;46.398;-63.798;2023-12-14T06:23:59;102064.38;;;-7.76;59.90
66703;BME280;60933;46.398;-63.798;2023-12-14T06:26:27;102055.09;;;-7.77;60.22
66703;BME280;60933;46.398;-63.798;2023-12-14T06:28:55;102064.28;;;-7.77;60.47
66703;BME280;60933;46.398;-63.798;2023-12-14T06:31:24;102056.75;;;-7.77;59.86
66703;BME280;60933;46.398;-63.798;2023-12-14T06:33:52;102072.78;;;-7.75;60.03
66703;BME280;60933;46.398;-63.798;2023-12-14T06:36:24;102062.97;;;-7.72;59.41
66703;BME280;60933;46.398;-63.798;2023-12-14T06:38:58;102088.16;;;-7.71;60.08
66703;BME280;60933;46.398;-63.798;2023-12-14T06:41:27;102081.50;;;-7.70;59.90
66703;BME280;60933;46.398;-63.798;2023-12-14T06:43:55;102088.25;;;-7.69;60.17
66703;BME280;60933;46.398;-63.798;2023-12-14T06:46:24;102081.50;;;-7.70;60.53
66703;BME280;60933;46.398;-63.798;2023-12-14T06:48:52;102070.28;;;-7.75;60.27
66703;BME280;60933;46.398;-63.798;2023-12-14T06:51:22;102070.38;;;-7.74;60.15
66703;BME280;60933;46.398;-63.798;2023-12-14T06:53:50;102070.47;;;-7.72;59.88
66703;BME280;60933;46.398;-63.798;2023-12-14T06:56:18;102077.16;;;-7.73;60.55
66703;BME280;60933;46.398;-63.798;2023-12-14T06:58:46;102078.00;;;-7.72;61.41
66703;BME280;60933;46.398;-63.798;2023-12-14T07:01:17;102090.53;;;-7.72;61.80
66703;BME280;60933;46.398;-63.798;2023-12-14T07:03:48;102072.78;;;-7.75;61.55
66703;BME280;60933;46.398;-63.798;2023-12-14T07:06:17;102084.75;;;-7.71;61.74
66703;BME280;60933;46.398;-63.798;2023-12-14T07:08:46;102091.44;;;-7.72;61.41
66703;BME280;60933;46.398;-63.798;2023-12-14T07:11:16;102108.09;;;-7.72;61.56
66703;BME280;60933;46.398;-63.798;2023-12-14T07:13:44;102095.34;;;-7.75;62.16
66703;BME280;60933;46.398;-63.798;2023-12-14T07:16:13;102099.28;;;-7.79;61.60
66703;BME280;60933;46.398;-63.798;2023-12-14T07:18:42;102096.78;;;-7.79;62.09
66703;BME280;60933;46.398;-63.798;2023-12-14T07:21:10;102100.69;;;-7.83;62.54
66703;BME280;60933;46.398;-63.798;2023-12-14T07:23:38;102087.41;;;-7.82;62.91
66703;BME280;60933;46.398;-63.798;2023-12-14T07:26:06;102101.78;;;-7.79;62.78
66703;BME280;60933;46.398;-63.798;2023-12-14T07:28:35;102098.72;;;-7.87;63.23
66703;BME280;60933;46.398;-63.798;2023-12-14T07:31:03;102092.59;;;-7.90;65.21
66703;BME280;60933;46.398;-63.798;2023-12-14T07:33:31;102117.47;;;-7.93;66.95
66703;BME280;60933;46.398;-63.798;2023-12-14T07:36:02;102101.19;;;-7.99;69.29
66703;BME280;60933;46.398;-63.798;2023-12-14T07:38:32;102112.78;;;-8.01;68.40
66703;BME280;60933;46.398;-63.798;2023-12-14T07:41:00;102120.06;;;-8.04;67.52
66703;BME280;60933;46.398;-63.798;2023-12-14T07:43:28;102114.16;;;-8.04;67.29
66703;BME280;60933;46.398;-63.798;2023-12-14T07:45:57;102112.53;;;-8.04;69.38
66703;BME280;60933;46.398;-63.798;2023-12-14T07:48:26;102112.63;;;-8.02;69.74
66703;BME280;60933;46.398;-63.798;2023-12-14T07:50:56;102112.63;;;-8.14;71.22
66703;BME280;60933;46.398;-63.798;2023-12-14T07:53:24;102128.88;;;-8.09;71.92
66703;BME280;60933;46.398;-63.798;2023-12-14T07:55:52;102119.63;;;-8.10;70.91
66703;BME280;60933;46.398;-63.798;2023-12-14T07:58:21;102135.31;;;-8.13;71.91
66703;BME280;60933;46.398;-63.798;2023-12-14T08:00:49;102129.72;;;-8.20;71.97
66703;BME280;60933;46.398;-63.798;2023-12-14T08:03:22;102131.56;;;-8.18;72.23
66703;BME280;60933;46.398;-63.798;2023-12-14T08:05:51;102151.41;;;-8.21;73.25
66703;BME280;60933;46.398;-63.798;2023-12-14T08:08:19;102145.50;;;-8.21;73.61
66703;BME280;60933;46.398;-63.798;2023-12-14T08:10:47;102143.66;;;-8.24;75.23
66703;BME280;60933;46.398;-63.798;2023-12-14T08:13:15;102144.94;;;-8.29;76.37
66703;BME280;60933;46.398;-63.798;2023-12-14T08:15:43;102151.13;;;-8.36;78.93
66703;BME280;60933;46.398;-63.798;2023-12-14T08:18:12;102138.03;;;-8.44;80.24
66703;BME280;60933;46.398;-63.798;2023-12-14T08:20:40;102128.88;;;-8.43;81.60
66703;BME280;60933;46.398;-63.798;2023-12-14T08:23:08;102146.16;;;-8.46;81.23
66703;BME280;60933;46.398;-63.798;2023-12-14T08:25:36;102133.66;;;-8.46;82.00
66703;BME280;60933;46.398;-63.798;2023-12-14T08:28:04;102136.28;;;-8.45;81.97
66703;BME280;60933;46.398;-63.798;2023-12-14T08:30:32;102141.16;;;-8.46;81.55
66703;BME280;60933;46.398;-63.798;2023-12-14T08:33:00;102154.16;;;-8.52;83.01
66703;BME280;60933;46.398;-63.798;2023-12-14T08:35:29;102148.13;;;-8.54;83.49
66703;BME280;60933;46.398;-63.798;2023-12-14T08:41:28;102163.16;;;-8.54;80.83
66703;BME280;60933;46.398;-63.798;2023-12-14T08:44:51;102152.41;;;-8.53;77.49
66703;BME280;60933;46.398;-63.798;2023-12-14T08:47:43;102168.28;;;-8.52;76.50
66703;BME280;60933;46.398;-63.798;2023-12-14T08:50:13;102169.69;;;-8.56;74.98
66703;BME280;60933;46.398;-63.798;2023-12-14T08:52:43;102162.41;;;-8.53;76.17
66703;BME280;60933;46.398;-63.798;2023-12-14T08:55:14;102165.78;;;-8.52;76.54
66703;BME280;60933;46.398;-63.798;2023-12-14T08:57:42;102169.19;;;-8.52;76.41
66703;BME280;60933;46.398;-63.798;2023-12-14T09:00:11;102183.72;;;-8.46;76.28
66703;BME280;60933;46.398;-63.798;2023-12-14T09:02:39;102176.16;;;-8.48;75.75
66703;BME280;60933;46.398;-63.798;2023-12-14T09:05:08;102174.53;;;-8.47;76.24
66703;BME280;60933;46.398;-63.798;2023-12-14T09:07:41;102184.41;;;-8.49;76.08
66703;BME280;60933;46.398;-63.798;2023-12-14T09:10:09;102177.78;;;-8.48;75.75
66703;BME280;60933;46.398;-63.798;2023-12-14T09:12:37;102177.03;;;-8.47;75.48
66703;BME280;60933;46.398;-63.798;2023-12-14T09:15:06;102186.91;;;-8.49;75.34
66703;BME280;60933;46.398;-63.798;2023-12-14T09:17:34;102173.69;;;-8.58;75.71
66703;BME280;60933;46.398;-63.798;2023-12-14T09:20:04;102197.69;;;-8.50;75.27
66703;BME280;60933;46.398;-63.798;2023-12-14T09:22:33;102195.19;;;-8.50;75.06
66703;BME280;60933;46.398;-63.798;2023-12-14T09:25:01;102192.47;;;-8.53;75.54
66703;BME280;60933;46.398;-63.798;2023-12-14T09:27:30;102200.97;;;-8.51;75.63
66703;BME280;60933;46.398;-63.798;2023-12-14T09:29:58;102203.47;;;-8.51;75.31
66703;BME280;60933;46.398;-63.798;2023-12-14T09:32:27;102185.94;;;-8.51;73.96
66703;BME280;60933;46.398;-63.798;2023-12-14T09:34:55;102211.22;;;-8.48;74.57
66703;BME280;60933;46.398;-63.798;2023-12-14T09:37:24;102197.56;;;-8.51;76.13
66703;BME280;60933;46.398;-63.798;2023-12-14T09:39:52;102200.97;;;-8.51;76.21
66703;BME280;60933;46.398;-63.798;2023-12-14T09:42:20;102198.97;;;-8.55;76.50
66703;BME280;60933;46.398;-63.798;2023-12-14T09:44:50;102187.22;;;-8.56;77.34
66703;BME280;60933;46.398;-63.798;2023-12-14T09:47:19;102195.38;;;-8.59;76.24
66703;BME280;60933;46.398;-63.798;2023-12-14T09:49:48;102197.88;;;-8.59;76.68
66703;BME280;60933;46.398;-63.798;2023-12-14T09:52:17;102203.22;;;-8.54;76.71
66703;BME280;60933;46.398;-63.798;2023-12-14T09:54:45;102197.56;;;-8.51;77.32
66703;BME280;60933;46.398;-63.798;2023-12-14T09:57:13;102211.00;;;-8.51;75.98
66703;BME280;60933;46.398;-63.798;2023-12-14T09:59:41;102213.34;;;-8.52;75.18
66703;BME280;60933;46.398;-63.798;2023-12-14T10:02:18;102210.84;;;-8.52;76.13
66703;BME280;60933;46.398;-63.798;2023-12-14T10:04:47;102219.91;;;-8.54;75.53
66703;BME280;60933;46.398;-63.798;2023-12-14T10:07:15;102215.94;;;-8.63;75.68
66703;BME280;60933;46.398;-63.798;2023-12-14T10:09:44;102215.16;;;-8.62;74.48
66703;BME280;60933;46.398;-63.798;2023-12-14T10:12:12;102216.78;;;-8.62;75.07
66703;BME280;60933;46.398;-63.798;2023-12-14T10:14:40;102215.03;;;-8.63;74.40
66703;BME280;60933;46.398;-63.798;2023-12-14T10:17:17;102228.84;;;-8.68;74.93
66703;BME280;60933;46.398;-63.798;2023-12-14T10:19:47;102224.06;;;-8.65;75.66
66703;BME280;60933;46.398;-63.798;2023-12-14T10:22:17;102243.13;;;-8.67;76.50
66703;BME280;60933;46.398;-63.798;2023-12-14T10:24:47;102235.47;;;-8.69;76.03
66703;BME280;60933;46.398;-63.798;2023-12-14T10:27:15;102237.97;;;-8.69;76.99
66703;BME280;60933;46.398;-63.798;2023-12-14T10:29:46;102260.50;;;-8.69;77.41
66703;BME280;60933;46.398;-63.798;2023-12-14T10:32:14;102238.59;;;-8.71;76.99
66703;BME280;60933;46.398;-63.798;2023-12-14T10:34:43;102238.97;;;-8.67;77.53
66703;BME280;60933;46.398;-63.798;2023-12-14T10:37:12;102238.97;;;-8.67;77.49
66703;BME280;60933;46.398;-63.798;2023-12-14T10:39:42;102248.34;;;-8.64;77.16
66703;BME280;60933;46.398;-63.798;2023-12-14T10:42:12;102247.59;;;-8.63;76.71
66703;BME280;60933;46.398;-63.798;2023-12-14T10:44:50;102251.00;;;-8.63;76.89
66703;BME280;60933;46.398;-63.798;2023-12-14T10:47:23;102259.47;;;-8.61;77.85
66703;BME280;60933;46.398;-63.798;2023-12-14T10:49:51;102282.75;;;-8.62;77.83
66703;BME280;60933;46.398;-63.798;2023-12-14T10:52:22;102265.66;;;-8.67;77.45
66703;BME280;60933;46.398;-63.798;2023-12-14T10:54:58;102268.16;;;-8.67;77.02
66703;BME280;60933;46.398;-63.798;2023-12-14T10:57:28;102276.53;;;-8.67;76.93
66703;BME280;60933;46.398;-63.798;2023-12-14T11:00:02;102280.66;;;-8.67;77.22
66703;BME280;60933;46.398;-63.798;2023-12-14T11:02:40;102270.66;;;-8.67;76.84
66703;BME280;60933;46.398;-63.798;2023-12-14T11:05:14;102288.19;;;-8.67;77.56
66703;BME280;60933;46.398;-63.798;2023-12-14T11:07:54;102266.50;;;-8.67;77.09
66703;BME280;60933;46.398;-63.798;2023-12-14T11:10:27;102258.53;;;-8.73;76.22
66703;BME280;60933;46.398;-63.798;2023-12-14T11:13:01;102258.41;;;-8.75;77.31
66703;BME280;60933;46.398;-63.798;2023-12-14T11:15:34;102275.53;;;-8.69;76.93
66703;BME280;60933;46.398;-63.798;2023-12-14T11:20:47;102285.44;;;-8.70;77.44
66703;BME280;60933;46.398;-63.798;2023-12-14T11:23:26;102271.03;;;-8.73;77.24
66703;BME280;60933;46.398;-63.798;2023-12-14T11:25:59;102275.78;;;-8.76;77.56
66703;BME280;60933;46.398;-63.798;2023-12-14T11:28:28;102294.22;;;-8.76;78.05
66703;BME280;60933;46.398;-63.798;2023-12-14T11:30:57;102309.09;;;-8.77;77.85
66703;BME280;60933;46.398;-63.798;2023-12-14T11:33:26;102299.97;;;-8.77;78.62
66703;BME280;60933;46.398;-63.798;2023-12-14T11:35:56;102284.06;;;-8.77;76.76
66703;BME280;60933;46.398;-63.798;2023-12-14T11:38:24;102289.69;;;-8.80;76.74
66703;BME280;60933;46.398;-63.798;2023-12-14T11:40:53;102304.72;;;-8.80;75.40
66703;BME280;60933;46.398;-63.798;2023-12-14T11:43:21;102294.06;;;-8.77;75.77
66703;BME280;60933;46.398;-63.798;2023-12-14T11:45:51;102303.47;;;-8.75;75.57
66703;BME280;60933;46.398;-63.798;2023-12-14T11:48:20;102308.59;;;-8.73;76.14
66703;BME280;60933;46.398;-63.798;2023-12-14T11:50:48;102297.72;;;-8.73;75.69
66703;BME280;60933;46.398;-63.798;2023-12-14T11:53:18;102302.72;;;-8.73;76.20
66703;BME280;60933;46.398;-63.798;2023-12-14T11:55:46;102310.25;;;-8.73;76.23
66703;BME280;60933;46.398;-63.798;2023-12-14T11:58:15;102312.97;;;-8.70;75.72
66703;BME280;60933;46.398;-63.798;2023-12-14T12:00:44;102309.22;;;-8.76;75.73
66703;BME280;60933;46.398;-63.798;2023-12-14T12:03:16;102300.63;;;-8.79;75.79
66703;BME280;60933;46.398;-63.798;2023-12-14T12:05:46;102344.28;;;-8.76;76.10
66703;BME280;60933;46.398;-63.798;2023-12-14T12:08:20;102325.00;;;-8.77;77.50
66703;BME280;60933;46.398;-63.798;2023-12-14T12:10:49;102325.66;;;-8.79;78.54
66703;BME280;60933;46.398;-63.798;2023-12-14T12:13:19;102332.25;;;-8.80;78.71
66703;BME280;60933;46.398;-63.798;2023-12-14T12:15:48;102323.13;;;-8.79;79.63
66703;BME280;60933;46.398;-63.798;2023-12-14T12:18:17;102331.03;;;-8.75;79.63
66703;BME280;60933;46.398;-63.798;2023-12-14T12:20:45;102318.50;;;-8.75;78.13
66703;BME280;60933;46.398;-63.798;2023-12-14T12:23:14;102321.38;;;-8.70;77.49
66703;BME280;60933;46.398;-63.798;2023-12-14T12:25:44;102335.13;;;-8.75;76.26
66703;BME280;60933;46.398;-63.798;2023-12-14T12:28:12;102334.63;;;-8.71;73.77
66703;BME280;60933;46.398;-63.798;2023-12-14T12:30:40;102347.53;;;-8.66;72.62
66703;BME280;60933;46.398;-63.798;2023-12-14T12:33:09;102351.63;;;-8.67;69.71
66703;BME280;60933;46.398;-63.798;2023-12-14T12:35:38;102336.63;;;-8.67;70.86
66703;BME280;60933;46.398;-63.798;2023-12-14T12:38:06;102335.88;;;-8.66;71.59
66703;BME280;60933;46.398;-63.798;2023-12-14T12:40:35;102339.75;;;-8.59;71.18
66703;BME280;60933;46.398;-63.798;2023-12-14T12:43:03;102344.88;;;-8.57;70.60
66703;BME280;60933;46.398;-63.798;2023-12-14T12:45:31;102344.22;;;-8.55;70.35